Les résultats vous sont offerts par

Télécharger en pdf

Le tour des Commères - 11.2 km

25/10/2015 - Sirod

167 classés sur 169 inscrits

Ordre Scratch Nom Prénom Dossard Temps Catégorie Club
1 1  EL MADI  EL AAZIM 364 00:41:19 M1  
2 2  BURRI  JIMMY 320 00:42:54 SE  
3 3  ABERLENC  JOSSELIN 344 00:44:36 SE  
4 4  STALDER  SEBASTIEN 405 00:46:06 SE  
5 5  LEROY  ANTOINE 366 00:46:17 SE  
6 6  DELAVELLE  CLEMENT 348 00:46:39 SE  
7 7  JOLY  FELICIEN 301 00:46:50 SE  
8 8  GABAS  SEBASTIEN 315 00:48:28 SE  
9 9  MARTENAT  REGIS 338 00:48:59 SE  
10 10  CORNEBOIS  JEROME 408 00:49:04 M1  
11 11  LACOSTE  THOMAS 367 00:49:18 SE  
12 12  PERRENOUD  ALAIN 322 00:49:30 M2  
13 13  GIROD  ERIC 370 00:49:39 M1  
14 14  MICHALET  PIERRE OLIVIER 341 00:50:27 JU  
15 15  FOUSSEREAU  FRANCK 349 00:50:38 M2  
16 16  SMANIOTTO  YVAN 336 00:50:46 M1  
17 18  MICHAUD  MICKAEL 159 00:51:56 SE  TRIATH'LONS
18 19  GRANDPERRIN  DOMINIQUE 359 00:51:59 M1  
19 21  CLAVIER  JULIEN 47 00:52:27 CA  A.L.L SECTION TRAIL
20 22  COURVOISIER  JULIEN 54 00:52:29 SE  
21 23  DARPHIN  ARNAUD 361 00:52:38 SE  
22 24  VUILLEMIN  JOEL 394 00:52:51 M1  
23 25  PORTE  JEAN FRANCOIS 332 00:52:56 M1  
24 28  MONNERET  ROMAIN 314 00:53:46 JU  
25 29  FOULON  LAURENT 365 00:53:52 M1  
26 30  QUIRICO  YOANN 335 00:53:58 SE  
27 31  DUBOZ  YANN 78 00:54:12 SE  LONS ATHLETIQUE CLUB
28 32  CORDIER  BRUNO 409 00:54:17 M1  
29 33  DALLOZ  FABRICE 60 00:54:20 M1  LONS ATHLETIQUE CLUB
30 34  BRENDLE  TRISTAN 31 00:54:21 M1  
31 35  QUENEA  DIMITRI 197 00:54:23 ES  
32 36  DUPARCHY  FABIEN 418 00:54:26 SE  
33 37  THIBERT  FRED 219 00:54:40 M1  
34 38  JACQUES  SEBASTIEN 410 00:54:43 SE  
35 39  PYON BOUTRIT  AURELIEN 196 00:55:08 SE  LONS ATHLETIQUE CLUB
36 40  DEGENEVE  SEBASTIEN 384 00:55:19 M1  
37 41  SANTOS  MANUEL 213 00:55:27 M2  
38 42  ESCOFFIER  ANDRE 85 00:55:37 M3  RCHJM
39 44  SCHWEITZER  YANNICK 337 00:56:14 SE  
40 45  GARNIER  MARC 304 00:56:18 SE  
41 46  MOUTENET  JEREMY 415 00:56:25 SE  
42 47  LACROIX  OLIVIER 138 00:56:37 SE  
43 48  BINETRUY  STEPHANE 14 00:56:45 SE  
44 49  GILLET  FRANCK 109 00:56:45 M1  
45 50  SAPPEZ  AURELIEN 390 00:56:57 SE  
46 51  PECHOUX  QUENTIN 181 00:57:18 SE  TEAM ELEPHANT BLEU
47 52  PIERRECY  JONATHAN 186 00:57:21 SE  
48 53  DAUFFER  ROMAIN 64 00:57:28 CA  CA PONTARLIER HANDBALL
49 54  VERJUS  LAURENT 323 00:57:30 M2  
50 55  CLAIRET  FRANCOIS 333 00:57:31 M3  
51 56  DAROCHA  PIERRE 63 00:57:48 JU  
52 57  PAGET-GOY  CHARLY 385 00:57:48 M1  
53 58  CORNU  BRUNO 399 00:57:50 M2  
54 60  BOURGEOIS  CLAUDE 330 00:58:16 M2  
55 61  VUILLEMENOT  ROLAND 350 00:58:25 M3  
56 62  DUBOZ  FREDERIC 75 00:58:41 M1  
57 63  QUINTARD  SERGE 198 00:58:55 M1  
58 64  VERNEREY  THIERRY 363 00:59:02 M2  
59 66  CAMELIN  BORIS 41 00:59:09 ES  
60 67  PERRARD  ANTOINE 362 00:59:09 SE  
61 68  PAGET  JEAN CLAUDE 329 00:59:10 M1  
62 69  MAIRET  AURELIEN 150 00:59:27 SE  
63 70  KOZMICK  ALAIN 316 00:59:36 M3  
64 71  FUSARO  HENRI 294 00:59:41 M1  
65 72  MORAND  THOMAS 393 00:59:44 M1  
66 75  GIOVANELLI  FLORENT 111 01:00:22 SE  
67 76  CHAUTARD  FREDERICK 45 01:00:41 SE  
68 77  JARMUZYNSKI  MARC 129 01:00:45 SE  
69 78  CORNU  QUENTIN 400 01:01:07 CA  
70 79  LOPIN  VINCENT 147 01:01:13 SE  
71 80  DAROCHA  DAVID 62 01:01:50 M1  
72 81  FOLLIET  ADRIEN 334 01:01:53 SE  
73 82  LAMBOTTE  XAVIER 142 01:01:56 SE  
74 83  TISSOT  NORBERT 403 01:01:56 M2  
75 84  BATAIL  BRUNO 4 01:01:58 M1  
76 85  DEYNOUT  JEAN MARC 72 01:02:02 M2  LES COPAINS D'AVANT
77 86  TREUVEY  FLORENT 319 01:02:08 M1  
78 87  ESCOFFIER  ERIC 86 01:02:09 M2  
79 88  DESFUSSE  THIERRY 327 01:02:13 M2  
80 91  JEANNIN  YVES 134 01:03:05 M1  
81 94  GUINARD  SEBASTIEN 123 01:04:07 SE  
82 96  BEZARD  MARTIAL 396 01:04:17 M1  
83 97  ANNICHINNI  DAVID 375 01:04:19 SE  
84 99  TILLIE  MAXIME 310 01:04:45 SE  
85 100  SCANDELLA  FRANCESCO 214 01:04:47 SE  
86 101  GOY  FRANCK 391 01:04:52 M1  
87 102  PANIER  YVES 176 01:05:10 M3  
88 105  MONNIER  DOMINIQUE 402 01:05:56 M1  
89 107  GERMAIN  THIBAUT 107 01:06:52 SE  
90 108  NAEGELE  ALEXANDRE 293 01:07:11 SE  
91 109  SIGONNEY  LUDOVIC 407 01:07:22 M1  
92 113  GADIOLET  LUCAS 406 01:07:48 SE  
93 115  MELET  JEAN PAUL 157 01:08:20 M3  LAC/LONS ATHLETIQUE CLUB
94 116  BURRI  DIDIER 38 01:08:25 M2  
95 117  GONNOT  PHILIPPE 324 01:08:35 M1  
96 118  AUBRY  ROBIN 414 01:08:56 M2  
97 119  SALVI  YVES 311 01:09:40 M3  
98 121  GUILLET  SEBASTIEN 120 01:09:49 M1  
99 123  VAGNEUR  MICHEL 224 01:10:26 M2  
100 124  PETETIN  PIERRE ALAIN 351 01:10:27 SE  
101 125  PETETIN  ALAIN 233 01:10:28 M2  ASPTT
102 126  BORGAZZI  ROLAND 20 01:10:31 M3  TRIATHLON PONTARLIER
103 127  FARGE  JEREMY 88 01:10:33 SE  
104 128  VERCEY  CEDRIC 225 01:10:33 SE  
105 132  DURAFFOURG  DAVID 401 01:11:07 SE  
106 133  CUENOT  HERVE 58 01:11:23 M2  
107 135  PAREDES  PATRICK 290 01:11:36 M2  
108 137  BAILLY SALINS  ROLAND 3 01:11:52 M4  
109 139  DECHARRIERE  OLIVIER 389 01:12:12 M2  
110 140  BAUNE  STEPHANE 6 01:12:21 M1  
111 146  PAQUOTTE  FRANCK 178 01:14:28 SE  
112 147  PONTON  ALAIN 379 01:14:40 M2  
113 153  MINOLETTI  BENOIT 165 01:17:12 SE  
114 157  BUFFAVAND  CLAUDE 424 01:18:16 SE  
115 163  BLANCHET  FRANCIS 383 01:24:27 M4  

 

 

Les résultats vous sont offerts par

Télécharger en pdf

 

 

 

 

 

 

 

 

 

 

 

 

 

 

 

 

 

 

 

 

 

chronometrage,chronométrage, sportif, chrono, course, course à pied, trail, trails, couse nature, puce